Edwinstowe, United Kingdom
Current Conditions -  °F | °C
As of 2:50 AM on Friday 28 Nov 2014 (Local Time) from EGCN Reporting Station
Haze Haze  
Wind Chill: 46°   Ceiling: 500
Heat Index: 46°   Visibility: 2.3mi
Dew Point: 46°   Wind: 2mph
Humidity: 100%   Direction: NA
Pressure: 29.68"   Gusts: NA
Location:  53.19°N, 1.06°W
Report Text: EGCN 280250Z VRB02KT 3800 BR SCT003 OVC005 08/08 Q1005
Loading
Personal Weather Stations






























Interactive Weather Map New forecast layout! Learn more

10-Day Weather Forecast

Advertisements
Track Severe Weather on mobile